Time,TemperatureF,DewpointF,PressureIn,WindDirection,WindDirectionDegrees,WindSpeedMPH,WindSpeedGustMPH,Humidity,HourlyPrecipIn,Conditions,Clouds,dailyrainin,SoftwareType,DateUTC
2013-01-12 00:09:00,14.0,12.1,30.05,North,0,2.7,-999.0,92,-99.99,,,0.00,Acu-Link.com,2013-01-12 09:09:00,
2013-01-12 00:24:00,14.0,12.1,30.04,North,0,3.2,-999.0,92,-99.99,,,0.00,Acu-Link.com,2013-01-12 09:24:00,
2013-01-12 00:40:00,14.2,12.3,30.04,North,0,2.2,-999.0,92,-99.99,,,0.00,Acu-Link.com,2013-01-12 09:40:00,
2013-01-12 00:55:00,14.4,12.5,30.04,North,0,2.7,-999.0,92,-99.99,,,0.00,Acu-Link.com,2013-01-12 09:55:00,
2013-01-12 01:10:00,14.7,12.8,30.03,North,0,3.7,-999.0,92,-99.99,,,0.00,Acu-Link.com,2013-01-12 10:10:00,
2013-01-12 01:25:00,14.7,12.8,30.04,North,0,2.7,-999.0,92,-99.99,,,0.00,Acu-Link.com,2013-01-12 10:25:00,
2013-01-12 01:41:00,14.7,12.8,30.04,North,0,1.1,-999.0,92,-99.99,,,0.00,Acu-Link.com,2013-01-12 10:41:00,
2013-01-12 01:56:00,14.7,12.8,30.03,North,0,3.7,-999.0,92,-99.99,,,0.00,Acu-Link.com,2013-01-12 10:56:00,
2013-01-12 02:11:00,14.5,12.6,30.02,North,0,2.7,-999.0,92,-99.99,,,0.00,Acu-Link.com,2013-01-12 11:11:00,
2013-01-12 02:26:00,14.5,12.6,30.01,North,0,2.7,-999.0,92,-99.99,,,0.00,Acu-Link.com,2013-01-12 11:26:00,
2013-01-12 02:42:00,14.0,12.1,30.01,North,0,0.0,-999.0,92,-99.99,,,0.00,Acu-Link.com,2013-01-12 11:42:00,
2013-01-12 02:57:00,13.1,11.2,30.00,North,0,0.0,-999.0,92,-99.99,,,0.00,Acu-Link.com,2013-01-12 11:57:00,
2013-01-12 03:12:00,12.7,10.8,29.99,North,0,0.0,-999.0,92,-99.99,,,0.00,Acu-Link.com,2013-01-12 12:12:00,
2013-01-12 03:27:00,12.7,10.6,29.98,North,0,2.2,-999.0,91,-99.99,,,0.00,Acu-Link.com,2013-01-12 12:27:00,
2013-01-12 03:43:00,11.7,9.3,29.98,North,0,0.0,-999.0,90,-99.99,,,0.00,Acu-Link.com,2013-01-12 12:43:00,
2013-01-12 03:58:00,10.9,8.6,29.97,North,0,0.0,-999.0,90,-99.99,,,0.00,Acu-Link.com,2013-01-12 12:58:00,
2013-01-12 04:13:00,11.3,9.2,29.96,North,0,2.2,-999.0,91,-99.99,,,0.00,Acu-Link.com,2013-01-12 13:13:00,
2013-01-12 04:28:00,10.8,8.5,29.95,North,0,2.7,-999.0,90,-99.99,,,0.00,Acu-Link.com,2013-01-12 13:28:00,
2013-01-12 04:44:00,10.0,7.7,29.95,North,0,2.2,-999.0,90,-99.99,,,0.00,Acu-Link.com,2013-01-12 13:44:00,
2013-01-12 04:59:00,9.0,6.4,29.93,North,0,0.0,-999.0,89,-99.99,,,0.00,Acu-Link.com,2013-01-12 13:59:00,
2013-01-12 05:14:00,8.2,5.4,29.92,North,0,0.0,-999.0,88,-99.99,,,0.00,Acu-Link.com,2013-01-12 14:14:00,
2013-01-12 05:29:00,7.3,4.5,29.91,North,0,0.0,-999.0,88,-99.99,,,0.00,Acu-Link.com,2013-01-12 14:29:00,
2013-01-12 05:45:00,7.2,4.4,29.90,North,0,0.0,-999.0,88,-99.99,,,0.00,Acu-Link.com,2013-01-12 14:45:00,
2013-01-12 06:00:00,7.0,4.2,29.89,North,0,0.0,-999.0,88,-99.99,,,0.00,Acu-Link.com,2013-01-12 15:00:00,
2013-01-12 06:15:00,6.4,3.6,29.88,North,0,0.0,-999.0,88,-99.99,,,0.00,Acu-Link.com,2013-01-12 15:15:00,
2013-01-12 06:30:00,6.8,4.0,29.88,North,0,3.2,-999.0,88,-99.99,,,0.00,Acu-Link.com,2013-01-12 15:30:00,
2013-01-12 06:46:00,7.2,4.4,29.89,North,0,2.2,-999.0,88,-99.99,,,0.00,Acu-Link.com,2013-01-12 15:46:00,
2013-01-12 07:01:00,8.1,5.3,29.88,North,0,1.7,-999.0,88,-99.99,,,0.00,Acu-Link.com,2013-01-12 16:01:00,
2013-01-12 07:16:00,9.1,6.5,29.88,North,0,1.7,-999.0,89,-99.99,,,0.00,Acu-Link.com,2013-01-12 16:16:00,
2013-01-12 07:31:00,10.0,7.7,29.88,North,0,1.1,-999.0,90,-99.99,,,0.00,Acu-Link.com,2013-01-12 16:31:00,
2013-01-12 07:47:00,11.1,8.8,29.88,North,0,1.7,-999.0,90,-99.99,,,0.00,Acu-Link.com,2013-01-12 16:47:00,
2013-01-12 08:02:00,11.8,9.4,29.87,North,0,0.0,-999.0,90,-99.99,,,0.00,Acu-Link.com,2013-01-12 17:02:00,
2013-01-12 08:17:00,12.0,9.6,29.86,North,0,0.0,-999.0,90,-99.99,,,0.00,Acu-Link.com,2013-01-12 17:17:00,
2013-01-12 08:33:00,12.0,9.6,29.86,North,0,0.0,-999.0,90,-99.99,,,0.00,Acu-Link.com,2013-01-12 17:33:00,
2013-01-12 08:48:00,12.2,9.8,29.85,North,0,2.2,-999.0,90,-99.99,,,0.00,Acu-Link.com,2013-01-12 17:48:00,
2013-01-12 09:03:00,12.9,10.8,29.86,North,0,0.0,-999.0,91,-99.99,,,0.00,Acu-Link.com,2013-01-12 18:03:00,
2013-01-12 09:18:00,13.3,11.2,29.85,North,0,2.2,-999.0,91,-99.99,,,0.00,Acu-Link.com,2013-01-12 18:18:00,
2013-01-12 09:34:00,13.6,11.5,29.84,North,0,0.0,-999.0,91,-99.99,,,0.00,Acu-Link.com,2013-01-12 18:34:00,
2013-01-12 09:49:00,13.8,11.7,29.84,North,0,0.0,-999.0,91,-99.99,,,0.00,Acu-Link.com,2013-01-12 18:49:00,
2013-01-12 10:04:00,14.0,11.9,29.83,North,0,2.7,-999.0,91,-99.99,,,0.00,Acu-Link.com,2013-01-12 19:04:00,
2013-01-12 10:19:00,13.5,11.4,29.82,North,0,2.2,-999.0,91,-99.99,,,0.00,Acu-Link.com,2013-01-12 19:19:00,
2013-01-12 10:35:00,13.1,11.0,29.83,North,0,2.2,-999.0,91,-99.99,,,0.00,Acu-Link.com,2013-01-12 19:35:00,
2013-01-12 10:50:00,12.9,10.8,29.82,North,0,0.0,-999.0,91,-99.99,,,0.00,Acu-Link.com,2013-01-12 19:50:00,
2013-01-12 11:05:00,12.6,10.5,29.81,North,0,1.1,-999.0,91,-99.99,,,0.00,Acu-Link.com,2013-01-12 20:05:00,
2013-01-12 11:20:00,12.4,10.3,29.82,North,0,0.0,-999.0,91,-99.99,,,0.00,Acu-Link.com,2013-01-12 20:20:00,
2013-01-12 11:36:00,12.2,10.1,29.81,North,0,0.0,-999.0,91,-99.99,,,0.00,Acu-Link.com,2013-01-12 20:36:00,
2013-01-12 11:51:00,12.0,9.9,29.80,North,0,0.0,-999.0,91,-99.99,,,0.00,Acu-Link.com,2013-01-12 20:51:00,
2013-01-12 12:06:00,12.2,10.1,29.80,North,0,0.0,-999.0,91,-99.99,,,0.00,Acu-Link.com,2013-01-12 21:06:00,
2013-01-12 12:21:00,12.4,10.3,29.79,North,0,0.0,-999.0,91,-99.99,,,0.00,Acu-Link.com,2013-01-12 21:21:00,
2013-01-12 12:37:00,12.2,10.1,29.79,North,0,0.0,-999.0,91,-99.99,,,0.00,Acu-Link.com,2013-01-12 21:37:00,
2013-01-12 12:53:00,12.2,10.1,29.78,North,0,0.0,-999.0,91,-99.99,,,0.00,Acu-Link.com,2013-01-12 21:53:00,
2013-01-12 13:08:00,12.7,10.6,29.78,North,0,0.0,-999.0,91,-99.99,,,0.00,Acu-Link.com,2013-01-12 22:08:00,
2013-01-12 13:23:00,12.9,10.8,29.76,North,0,0.0,-999.0,91,-99.99,,,0.00,Acu-Link.com,2013-01-12 22:23:00,
2013-01-12 13:38:00,13.1,11.0,29.77,North,0,0.0,-999.0,91,-99.99,,,0.00,Acu-Link.com,2013-01-12 22:38:00,
2013-01-12 13:54:00,13.3,11.2,29.76,North,0,0.0,-999.0,91,-99.99,,,0.00,Acu-Link.com,2013-01-12 22:54:00,
2013-01-12 14:09:00,13.3,11.2,29.75,North,0,0.0,-999.0,91,-99.99,,,0.00,Acu-Link.com,2013-01-12 23:09:00,
2013-01-12 14:24:00,13.3,11.2,29.75,North,0,0.0,-999.0,91,-99.99,,,0.00,Acu-Link.com,2013-01-12 23:24:00,
2013-01-12 14:39:00,13.3,11.2,29.75,North,0,0.0,-999.0,91,-99.99,,,0.00,Acu-Link.com,2013-01-12 23:39:00,
2013-01-12 14:55:00,13.5,11.4,29.74,North,0,0.0,-999.0,91,-99.99,,,0.00,Acu-Link.com,2013-01-12 23:55:00,
2013-01-12 15:10:00,13.6,11.5,29.74,North,0,0.0,-999.0,91,-99.99,,,0.00,Acu-Link.com,2013-01-13 00:10:00,
2013-01-12 15:25:00,13.8,11.7,29.74,North,0,1.1,-999.0,91,-99.99,,,0.00,Acu-Link.com,2013-01-13 00:25:00,
2013-01-12 15:40:00,14.2,12.3,29.73,North,0,0.0,-999.0,92,-99.99,,,0.00,Acu-Link.com,2013-01-13 00:40:00,
2013-01-12 15:56:00,14.5,12.6,29.73,North,0,0.0,-999.0,92,-99.99,,,0.00,Acu-Link.com,2013-01-13 00:56:00,
2013-01-12 16:11:00,14.7,12.8,29.72,North,0,0.0,-999.0,92,-99.99,,,0.00,Acu-Link.com,2013-01-13 01:11:00,
2013-01-12 16:27:00,15.1,13.2,29.71,North,0,0.0,-999.0,92,-99.99,,,0.00,Acu-Link.com,2013-01-13 01:27:00,
2013-01-12 16:42:00,15.3,13.4,29.70,North,0,0.0,-999.0,92,-99.99,,,0.00,Acu-Link.com,2013-01-13 01:42:00,
2013-01-12 16:57:00,15.3,13.4,29.71,North,0,0.0,-999.0,92,-99.99,,,0.00,Acu-Link.com,2013-01-13 01:57:00,
2013-01-12 17:12:00,15.3,13.4,29.70,North,0,1.7,-999.0,92,-99.99,,,0.00,Acu-Link.com,2013-01-13 02:12:00,
2013-01-12 17:27:00,15.1,13.2,29.69,North,0,0.0,-999.0,92,-99.99,,,0.00,Acu-Link.com,2013-01-13 02:27:00,
2013-01-12 17:43:00,14.7,12.8,29.68,North,0,0.0,-999.0,92,-99.99,,,0.00,Acu-Link.com,2013-01-13 02:43:00,
2013-01-12 17:58:00,14.0,12.1,29.68,North,0,0.0,-999.0,92,-99.99,,,0.00,Acu-Link.com,2013-01-13 02:58:00,
2013-01-12 18:13:00,13.5,11.4,29.67,North,0,0.0,-999.0,91,-99.99,,,0.00,Acu-Link.com,2013-01-13 03:13:00,
2013-01-12 18:28:00,13.5,11.4,29.66,North,0,0.0,-999.0,91,-99.99,,,0.00,Acu-Link.com,2013-01-13 03:28:00,
2013-01-12 18:43:00,13.6,11.7,29.66,North,0,0.0,-999.0,92,-99.99,,,0.00,Acu-Link.com,2013-01-13 03:43:00,
2013-01-12 18:59:00,13.1,11.2,29.66,North,0,0.0,-999.0,92,-99.99,,,0.00,Acu-Link.com,2013-01-13 03:59:00,
2013-01-12 19:14:00,13.5,11.6,29.66,North,0,0.0,-999.0,92,-99.99,,,0.00,Acu-Link.com,2013-01-13 04:14:00,
2013-01-12 19:29:00,13.6,11.7,29.66,North,0,0.0,-999.0,92,-99.99,,,0.00,Acu-Link.com,2013-01-13 04:29:00,
2013-01-12 19:45:00,14.4,12.5,29.65,North,0,0.0,-999.0,92,-99.99,,,0.00,Acu-Link.com,2013-01-13 04:45:00,
2013-01-12 20:16:00,15.1,13.2,29.63,North,0,0.0,-999.0,92,-99.99,,,0.00,Acu-Link.com,2013-01-13 05:16:00,
2013-01-12 20:31:00,15.3,13.4,29.61,North,0,0.0,-999.0,92,-99.99,,,0.00,Acu-Link.com,2013-01-13 05:31:00,
2013-01-12 20:47:00,14.9,13.0,29.61,North,0,0.0,-999.0,92,-99.99,,,0.00,Acu-Link.com,2013-01-13 05:47:00,
2013-01-12 21:02:00,14.9,13.0,29.61,North,0,0.0,-999.0,92,-99.99,,,0.00,Acu-Link.com,2013-01-13 06:02:00,
2013-01-12 21:17:00,14.9,13.0,29.60,North,0,0.0,-999.0,92,-99.99,,,0.00,Acu-Link.com,2013-01-13 06:17:00,
2013-01-12 21:32:00,14.7,12.8,29.59,North,0,0.0,-999.0,92,-99.99,,,0.00,Acu-Link.com,2013-01-13 06:32:00,
2013-01-12 21:48:00,14.5,12.6,29.58,North,0,0.0,-999.0,92,-99.99,,,0.00,Acu-Link.com,2013-01-13 06:48:00,
2013-01-12 22:03:00,14.2,12.3,29.58,North,0,0.0,-999.0,92,-99.99,,,0.00,Acu-Link.com,2013-01-13 07:03:00,
2013-01-12 22:18:00,13.8,11.9,29.58,North,0,0.0,-999.0,92,-99.99,,,0.00,Acu-Link.com,2013-01-13 07:18:00,
2013-01-12 22:33:00,13.1,11.2,29.57,North,0,0.0,-999.0,92,-99.99,,,0.00,Acu-Link.com,2013-01-13 07:33:00,
2013-01-12 22:49:00,12.7,10.8,29.57,North,0,0.0,-999.0,92,-99.99,,,0.00,Acu-Link.com,2013-01-13 07:49:00,
2013-01-12 23:04:00,12.6,10.5,29.56,North,0,0.0,-999.0,91,-99.99,,,0.00,Acu-Link.com,2013-01-13 08:04:00,
2013-01-12 23:19:00,13.3,11.2,29.56,North,0,0.0,-999.0,91,-99.99,,,0.00,Acu-Link.com,2013-01-13 08:19:00,
2013-01-12 23:34:00,14.0,12.1,29.56,North,0,0.0,-999.0,92,-99.99,,,0.00,Acu-Link.com,2013-01-13 08:34:00,
2013-01-12 23:50:00,14.9,13.2,29.55,North,0,0.0,-999.0,93,-99.99,,,0.00,Acu-Link.com,2013-01-13 08:50:00,